sensor_id;sensor_type;location;lat;lon;timestamp;P1;durP1;ratioP1;P2;durP2;ratioP2
62848;SDS011;48941;49.516;8.286;2023-05-07T00:00:43;6.40;;;3.78;;
62848;SDS011;48941;49.516;8.286;2023-05-07T00:03:11;5.22;;;3.25;;
62848;SDS011;48941;49.516;8.286;2023-05-07T00:05:40;4.57;;;3.40;;
62848;SDS011;48941;49.516;8.286;2023-05-07T00:08:10;6.43;;;3.63;;
62848;SDS011;48941;49.516;8.286;2023-05-07T00:10:38;5.10;;;3.67;;
62848;SDS011;48941;49.516;8.286;2023-05-07T00:13:06;5.53;;;3.50;;
62848;SDS011;48941;49.516;8.286;2023-05-07T00:15:33;4.95;;;3.70;;
62848;SDS011;48941;49.516;8.286;2023-05-07T00:18:01;4.82;;;3.45;;
62848;SDS011;48941;49.516;8.286;2023-05-07T00:20:29;5.65;;;3.70;;
62848;SDS011;48941;49.516;8.286;2023-05-07T00:22:59;4.78;;;3.80;;
62848;SDS011;48941;49.516;8.286;2023-05-07T00:25:28;5.10;;;3.60;;
62848;SDS011;48941;49.516;8.286;2023-05-07T00:27:56;4.88;;;3.50;;
62848;SDS011;48941;49.516;8.286;2023-05-07T00:30:23;6.70;;;3.80;;
62848;SDS011;48941;49.516;8.286;2023-05-07T00:32:51;4.43;;;3.67;;
62848;SDS011;48941;49.516;8.286;2023-05-07T00:35:19;5.60;;;3.75;;
62848;SDS011;48941;49.516;8.286;2023-05-07T00:37:47;4.35;;;3.67;;
62848;SDS011;48941;49.516;8.286;2023-05-07T00:40:15;4.63;;;3.63;;
62848;SDS011;48941;49.516;8.286;2023-05-07T00:42:44;4.50;;;3.80;;
62848;SDS011;48941;49.516;8.286;2023-05-07T00:45:13;7.00;;;3.72;;
62848;SDS011;48941;49.516;8.286;2023-05-07T00:47:41;8.15;;;4.00;;
62848;SDS011;48941;49.516;8.286;2023-05-07T00:50:09;6.13;;;3.90;;
62848;SDS011;48941;49.516;8.286;2023-05-07T00:52:39;4.57;;;3.63;;
62848;SDS011;48941;49.516;8.286;2023-05-07T00:55:07;6.88;;;3.60;;
62848;SDS011;48941;49.516;8.286;2023-05-07T00:57:36;5.60;;;3.90;;
62848;SDS011;48941;49.516;8.286;2023-05-07T01:00:08;4.75;;;3.90;;
62848;SDS011;48941;49.516;8.286;2023-05-07T01:02:39;5.82;;;3.78;;
62848;SDS011;48941;49.516;8.286;2023-05-07T01:05:09;6.57;;;4.05;;
62848;SDS011;48941;49.516;8.286;2023-05-07T01:07:38;5.43;;;3.80;;
62848;SDS011;48941;49.516;8.286;2023-05-07T01:10:08;7.93;;;3.95;;
62848;SDS011;48941;49.516;8.286;2023-05-07T01:12:38;5.68;;;4.00;;
62848;SDS011;48941;49.516;8.286;2023-05-07T01:15:09;6.20;;;4.03;;
62848;SDS011;48941;49.516;8.286;2023-05-07T01:17:37;5.93;;;3.85;;
62848;SDS011;48941;49.516;8.286;2023-05-07T01:20:08;5.28;;;3.75;;
62848;SDS011;48941;49.516;8.286;2023-05-07T01:22:39;6.32;;;4.00;;
62848;SDS011;48941;49.516;8.286;2023-05-07T01:25:08;3.83;;;3.42;;
62848;SDS011;48941;49.516;8.286;2023-05-07T01:27:35;5.22;;;3.50;;
62848;SDS011;48941;49.516;8.286;2023-05-07T01:30:04;5.15;;;3.08;;
62848;SDS011;48941;49.516;8.286;2023-05-07T01:32:35;4.38;;;3.50;;
62848;SDS011;48941;49.516;8.286;2023-05-07T01:35:05;5.45;;;3.30;;
62848;SDS011;48941;49.516;8.286;2023-05-07T01:37:36;4.40;;;3.17;;
62848;SDS011;48941;49.516;8.286;2023-05-07T01:40:07;4.82;;;3.53;;
62848;SDS011;48941;49.516;8.286;2023-05-07T01:42:36;4.25;;;3.45;;
62848;SDS011;48941;49.516;8.286;2023-05-07T01:45:04;4.47;;;3.40;;
62848;SDS011;48941;49.516;8.286;2023-05-07T01:47:33;5.57;;;3.10;;
62848;SDS011;48941;49.516;8.286;2023-05-07T01:50:01;5.97;;;3.38;;
62848;SDS011;48941;49.516;8.286;2023-05-07T01:52:29;5.63;;;3.33;;
62848;SDS011;48941;49.516;8.286;2023-05-07T01:54:57;3.53;;;3.10;;
62848;SDS011;48941;49.516;8.286;2023-05-07T01:57:26;4.65;;;3.22;;
62848;SDS011;48941;49.516;8.286;2023-05-07T01:59:54;4.35;;;3.22;;
62848;SDS011;48941;49.516;8.286;2023-05-07T02:02:21;4.47;;;3.65;;
62848;SDS011;48941;49.516;8.286;2023-05-07T02:04:50;4.40;;;3.40;;
62848;SDS011;48941;49.516;8.286;2023-05-07T02:07:18;7.47;;;3.75;;
62848;SDS011;48941;49.516;8.286;2023-05-07T02:09:46;6.60;;;3.65;;
62848;SDS011;48941;49.516;8.286;2023-05-07T02:12:13;4.70;;;3.40;;
62848;SDS011;48941;49.516;8.286;2023-05-07T02:14:43;3.78;;;3.38;;
62848;SDS011;48941;49.516;8.286;2023-05-07T02:17:10;5.03;;;3.40;;
62848;SDS011;48941;49.516;8.286;2023-05-07T02:19:38;7.13;;;3.50;;
62848;SDS011;48941;49.516;8.286;2023-05-07T02:22:06;5.60;;;3.83;;
62848;SDS011;48941;49.516;8.286;2023-05-07T02:24:34;5.35;;;3.45;;
62848;SDS011;48941;49.516;8.286;2023-05-07T02:27:02;6.70;;;3.60;;
62848;SDS011;48941;49.516;8.286;2023-05-07T02:29:29;5.05;;;3.42;;
62848;SDS011;48941;49.516;8.286;2023-05-07T02:31:59;4.53;;;3.30;;
62848;SDS011;48941;49.516;8.286;2023-05-07T02:34:27;5.15;;;3.60;;
62848;SDS011;48941;49.516;8.286;2023-05-07T02:36:54;5.13;;;3.40;;
62848;SDS011;48941;49.516;8.286;2023-05-07T02:39:22;4.80;;;3.90;;
62848;SDS011;48941;49.516;8.286;2023-05-07T02:41:51;6.38;;;4.10;;
62848;SDS011;48941;49.516;8.286;2023-05-07T02:44:18;4.68;;;3.40;;
62848;SDS011;48941;49.516;8.286;2023-05-07T02:46:46;4.30;;;3.67;;
62848;SDS011;48941;49.516;8.286;2023-05-07T02:49:15;6.43;;;3.60;;
62848;SDS011;48941;49.516;8.286;2023-05-07T02:51:43;4.72;;;3.60;;
62848;SDS011;48941;49.516;8.286;2023-05-07T02:54:11;5.32;;;3.60;;
62848;SDS011;48941;49.516;8.286;2023-05-07T02:56:39;5.65;;;3.78;;
62848;SDS011;48941;49.516;8.286;2023-05-07T02:59:06;4.18;;;3.47;;
62848;SDS011;48941;49.516;8.286;2023-05-07T03:01:34;5.43;;;4.03;;
62848;SDS011;48941;49.516;8.286;2023-05-07T03:04:02;7.82;;;4.03;;
62848;SDS011;48941;49.516;8.286;2023-05-07T03:06:31;4.78;;;3.42;;
62848;SDS011;48941;49.516;8.286;2023-05-07T03:08:59;4.20;;;3.45;;
62848;SDS011;48941;49.516;8.286;2023-05-07T03:11:27;5.30;;;3.83;;
62848;SDS011;48941;49.516;8.286;2023-05-07T03:13:55;5.20;;;3.67;;
62848;SDS011;48941;49.516;8.286;2023-05-07T03:16:22;8.27;;;3.65;;
62848;SDS011;48941;49.516;8.286;2023-05-07T03:18:51;6.15;;;3.60;;
62848;SDS011;48941;49.516;8.286;2023-05-07T03:21:18;4.93;;;3.50;;
62848;SDS011;48941;49.516;8.286;2023-05-07T03:23:48;5.20;;;3.80;;
62848;SDS011;48941;49.516;8.286;2023-05-07T03:26:15;5.00;;;3.90;;
62848;SDS011;48941;49.516;8.286;2023-05-07T03:28:43;5.10;;;3.88;;
62848;SDS011;48941;49.516;8.286;2023-05-07T03:31:11;4.90;;;3.90;;
62848;SDS011;48941;49.516;8.286;2023-05-07T03:33:50;5.22;;;3.67;;
62848;SDS011;48941;49.516;8.286;2023-05-07T03:36:19;6.63;;;4.13;;
62848;SDS011;48941;49.516;8.286;2023-05-07T03:38:49;5.80;;;4.82;;
62848;SDS011;48941;49.516;8.286;2023-05-07T03:41:17;5.68;;;4.10;;
62848;SDS011;48941;49.516;8.286;2023-05-07T03:43:45;4.65;;;3.83;;
62848;SDS011;48941;49.516;8.286;2023-05-07T03:46:13;6.20;;;3.78;;
62848;SDS011;48941;49.516;8.286;2023-05-07T03:48:40;6.20;;;4.25;;
62848;SDS011;48941;49.516;8.286;2023-05-07T03:51:08;5.53;;;4.30;;
62848;SDS011;48941;49.516;8.286;2023-05-07T03:53:36;6.00;;;3.83;;
62848;SDS011;48941;49.516;8.286;2023-05-07T03:56:05;5.03;;;4.03;;
62848;SDS011;48941;49.516;8.286;2023-05-07T03:58:33;5.25;;;4.32;;
62848;SDS011;48941;49.516;8.286;2023-05-07T04:01:01;5.82;;;4.20;;
62848;SDS011;48941;49.516;8.286;2023-05-07T04:03:29;6.90;;;4.43;;
62848;SDS011;48941;49.516;8.286;2023-05-07T04:05:57;7.32;;;4.25;;
62848;SDS011;48941;49.516;8.286;2023-05-07T04:08:24;4.82;;;4.00;;
62848;SDS011;48941;49.516;8.286;2023-05-07T04:10:54;4.55;;;4.07;;
62848;SDS011;48941;49.516;8.286;2023-05-07T04:13:23;5.53;;;4.00;;
62848;SDS011;48941;49.516;8.286;2023-05-07T04:15:51;5.63;;;4.10;;
62848;SDS011;48941;49.516;8.286;2023-05-07T04:18:19;6.60;;;4.72;;
62848;SDS011;48941;49.516;8.286;2023-05-07T04:20:47;6.55;;;4.00;;
62848;SDS011;48941;49.516;8.286;2023-05-07T04:23:16;5.13;;;4.35;;
62848;SDS011;48941;49.516;8.286;2023-05-07T04:25:44;4.68;;;4.10;;
62848;SDS011;48941;49.516;8.286;2023-05-07T04:28:11;5.65;;;4.05;;
62848;SDS011;48941;49.516;8.286;2023-05-07T04:30:41;7.82;;;4.55;;
62848;SDS011;48941;49.516;8.286;2023-05-07T04:33:09;6.00;;;4.22;;
62848;SDS011;48941;49.516;8.286;2023-05-07T04:35:37;5.75;;;3.72;;
62848;SDS011;48941;49.516;8.286;2023-05-07T04:38:05;5.57;;;3.92;;
62848;SDS011;48941;49.516;8.286;2023-05-07T04:40:35;6.15;;;4.32;;
62848;SDS011;48941;49.516;8.286;2023-05-07T04:43:03;6.00;;;4.07;;
62848;SDS011;48941;49.516;8.286;2023-05-07T04:45:31;6.85;;;4.20;;
62848;SDS011;48941;49.516;8.286;2023-05-07T04:48:00;5.43;;;4.20;;
62848;SDS011;48941;49.516;8.286;2023-05-07T04:50:28;4.63;;;4.05;;
62848;SDS011;48941;49.516;8.286;2023-05-07T04:52:56;5.88;;;4.43;;
62848;SDS011;48941;49.516;8.286;2023-05-07T04:55:24;5.35;;;4.45;;
62848;SDS011;48941;49.516;8.286;2023-05-07T04:57:52;6.18;;;4.47;;
62848;SDS011;48941;49.516;8.286;2023-05-07T05:00:20;5.57;;;4.15;;
62848;SDS011;48941;49.516;8.286;2023-05-07T05:02:49;7.38;;;4.70;;
62848;SDS011;48941;49.516;8.286;2023-05-07T05:05:18;5.80;;;4.60;;
62848;SDS011;48941;49.516;8.286;2023-05-07T05:07:46;8.80;;;4.43;;
62848;SDS011;48941;49.516;8.286;2023-05-07T05:10:14;8.82;;;4.22;;
62848;SDS011;48941;49.516;8.286;2023-05-07T05:12:42;5.25;;;4.40;;
62848;SDS011;48941;49.516;8.286;2023-05-07T05:15:10;5.85;;;4.50;;
62848;SDS011;48941;49.516;8.286;2023-05-07T05:17:38;7.63;;;4.55;;
62848;SDS011;48941;49.516;8.286;2023-05-07T05:20:07;6.97;;;4.20;;
62848;SDS011;48941;49.516;8.286;2023-05-07T05:22:37;5.72;;;4.10;;
62848;SDS011;48941;49.516;8.286;2023-05-07T05:25:05;6.25;;;4.40;;
62848;SDS011;48941;49.516;8.286;2023-05-07T05:27:34;6.03;;;4.60;;
62848;SDS011;48941;49.516;8.286;2023-05-07T05:30:02;6.40;;;4.05;;
62848;SDS011;48941;49.516;8.286;2023-05-07T05:32:31;5.28;;;4.22;;
62848;SDS011;48941;49.516;8.286;2023-05-07T05:35:00;9.45;;;4.22;;
62848;SDS011;48941;49.516;8.286;2023-05-07T05:37:28;8.45;;;4.28;;
62848;SDS011;48941;49.516;8.286;2023-05-07T05:39:57;6.80;;;4.22;;
62848;SDS011;48941;49.516;8.286;2023-05-07T05:42:25;5.18;;;4.18;;
62848;SDS011;48941;49.516;8.286;2023-05-07T05:44:53;5.75;;;4.35;;
62848;SDS011;48941;49.516;8.286;2023-05-07T05:47:21;7.88;;;4.03;;
62848;SDS011;48941;49.516;8.286;2023-05-07T05:49:49;7.72;;;3.88;;
62848;SDS011;48941;49.516;8.286;2023-05-07T05:52:17;4.60;;;3.90;;
62848;SDS011;48941;49.516;8.286;2023-05-07T05:54:45;6.97;;;4.03;;
62848;SDS011;48941;49.516;8.286;2023-05-07T05:57:14;5.88;;;4.00;;
62848;SDS011;48941;49.516;8.286;2023-05-07T05:59:42;7.13;;;3.80;;
62848;SDS011;48941;49.516;8.286;2023-05-07T06:02:11;7.18;;;3.85;;
62848;SDS011;48941;49.516;8.286;2023-05-07T06:04:39;5.38;;;4.00;;
62848;SDS011;48941;49.516;8.286;2023-05-07T06:07:09;4.90;;;4.10;;
62848;SDS011;48941;49.516;8.286;2023-05-07T06:09:36;6.10;;;4.07;;
62848;SDS011;48941;49.516;8.286;2023-05-07T06:12:04;4.75;;;3.50;;
62848;SDS011;48941;49.516;8.286;2023-05-07T06:14:34;6.07;;;3.70;;
62848;SDS011;48941;49.516;8.286;2023-05-07T06:17:01;6.03;;;3.50;;
62848;SDS011;48941;49.516;8.286;2023-05-07T06:19:29;7.93;;;3.70;;
62848;SDS011;48941;49.516;8.286;2023-05-07T06:21:57;4.43;;;3.80;;
62848;SDS011;48941;49.516;8.286;2023-05-07T06:24:27;4.97;;;3.80;;
62848;SDS011;48941;49.516;8.286;2023-05-07T06:26:55;7.75;;;4.20;;
62848;SDS011;48941;49.516;8.286;2023-05-07T06:29:25;7.10;;;3.72;;
62848;SDS011;48941;49.516;8.286;2023-05-07T06:31:54;4.63;;;3.55;;
62848;SDS011;48941;49.516;8.286;2023-05-07T06:34:22;4.28;;;3.53;;
62848;SDS011;48941;49.516;8.286;2023-05-07T06:36:50;7.45;;;4.47;;
62848;SDS011;48941;49.516;8.286;2023-05-07T06:39:18;8.32;;;3.80;;
62848;SDS011;48941;49.516;8.286;2023-05-07T06:41:46;15.35;;;3.67;;
62848;SDS011;48941;49.516;8.286;2023-05-07T06:44:13;4.80;;;3.90;;
62848;SDS011;48941;49.516;8.286;2023-05-07T06:46:41;4.45;;;3.30;;
62848;SDS011;48941;49.516;8.286;2023-05-07T06:49:10;6.60;;;4.00;;
62848;SDS011;48941;49.516;8.286;2023-05-07T06:51:39;6.38;;;3.75;;
62848;SDS011;48941;49.516;8.286;2023-05-07T06:54:07;3.97;;;3.58;;
62848;SDS011;48941;49.516;8.286;2023-05-07T06:56:35;6.53;;;3.40;;
62848;SDS011;48941;49.516;8.286;2023-05-07T06:59:03;5.28;;;3.67;;
62848;SDS011;48941;49.516;8.286;2023-05-07T07:01:30;4.72;;;3.50;;
62848;SDS011;48941;49.516;8.286;2023-05-07T07:03:58;4.30;;;3.65;;
62848;SDS011;48941;49.516;8.286;2023-05-07T07:06:28;3.67;;;3.05;;
62848;SDS011;48941;49.516;8.286;2023-05-07T07:08:58;6.35;;;3.40;;
62848;SDS011;48941;49.516;8.286;2023-05-07T07:11:26;5.22;;;3.25;;
62848;SDS011;48941;49.516;8.286;2023-05-07T07:13:53;5.28;;;3.40;;
62848;SDS011;48941;49.516;8.286;2023-05-07T07:16:21;7.10;;;3.38;;
62848;SDS011;48941;49.516;8.286;2023-05-07T07:18:49;4.63;;;3.40;;
62848;SDS011;48941;49.516;8.286;2023-05-07T07:21:17;7.00;;;3.53;;
62848;SDS011;48941;49.516;8.286;2023-05-07T07:23:46;7.03;;;3.38;;
62848;SDS011;48941;49.516;8.286;2023-05-07T07:26:14;3.60;;;3.17;;
62848;SDS011;48941;49.516;8.286;2023-05-07T07:28:42;4.88;;;3.45;;
62848;SDS011;48941;49.516;8.286;2023-05-07T07:31:11;4.10;;;3.35;;
62848;SDS011;48941;49.516;8.286;2023-05-07T07:33:39;5.28;;;3.17;;
62848;SDS011;48941;49.516;8.286;2023-05-07T07:36:07;4.72;;;3.30;;
62848;SDS011;48941;49.516;8.286;2023-05-07T07:38:35;4.90;;;3.38;;
62848;SDS011;48941;49.516;8.286;2023-05-07T07:41:04;5.35;;;3.40;;
62848;SDS011;48941;49.516;8.286;2023-05-07T07:43:31;5.38;;;3.17;;
62848;SDS011;48941;49.516;8.286;2023-05-07T07:45:59;5.00;;;3.28;;
62848;SDS011;48941;49.516;8.286;2023-05-07T07:48:27;4.20;;;3.22;;
62848;SDS011;48941;49.516;8.286;2023-05-07T07:50:55;4.75;;;3.17;;
62848;SDS011;48941;49.516;8.286;2023-05-07T07:53:22;5.32;;;3.25;;
62848;SDS011;48941;49.516;8.286;2023-05-07T07:55:50;3.47;;;3.13;;
62848;SDS011;48941;49.516;8.286;2023-05-07T07:58:25;3.20;;;2.95;;
62848;SDS011;48941;49.516;8.286;2023-05-07T08:00:53;4.93;;;3.30;;
62848;SDS011;48941;49.516;8.286;2023-05-07T08:03:22;4.40;;;3.25;;
62848;SDS011;48941;49.516;8.286;2023-05-07T08:05:50;5.60;;;3.20;;
62848;SDS011;48941;49.516;8.286;2023-05-07T08:08:17;4.15;;;3.17;;
62848;SDS011;48941;49.516;8.286;2023-05-07T08:10:45;4.75;;;3.40;;
62848;SDS011;48941;49.516;8.286;2023-05-07T08:13:17;5.28;;;3.25;;
62848;SDS011;48941;49.516;8.286;2023-05-07T08:15:46;4.05;;;3.10;;
62848;SDS011;48941;49.516;8.286;2023-05-07T08:18:14;4.40;;;2.90;;
62848;SDS011;48941;49.516;8.286;2023-05-07T08:20:42;4.40;;;3.25;;
62848;SDS011;48941;49.516;8.286;2023-05-07T08:23:10;3.92;;;3.40;;
62848;SDS011;48941;49.516;8.286;2023-05-07T08:25:37;4.38;;;3.40;;
62848;SDS011;48941;49.516;8.286;2023-05-07T08:28:06;5.60;;;2.97;;
62848;SDS011;48941;49.516;8.286;2023-05-07T08:30:35;5.47;;;3.15;;
62848;SDS011;48941;49.516;8.286;2023-05-07T08:33:04;6.95;;;3.20;;
62848;SDS011;48941;49.516;8.286;2023-05-07T08:35:32;4.07;;;3.20;;
62848;SDS011;48941;49.516;8.286;2023-05-07T08:38:00;6.30;;;3.30;;
62848;SDS011;48941;49.516;8.286;2023-05-07T08:40:28;3.35;;;2.90;;
62848;SDS011;48941;49.516;8.286;2023-05-07T08:42:56;3.65;;;3.10;;
62848;SDS011;48941;49.516;8.286;2023-05-07T08:45:25;3.38;;;2.97;;
62848;SDS011;48941;49.516;8.286;2023-05-07T08:48:02;4.20;;;3.15;;
62848;SDS011;48941;49.516;8.286;2023-05-07T08:50:35;4.22;;;3.17;;
62848;SDS011;48941;49.516;8.286;2023-05-07T08:53:04;4.65;;;3.00;;
62848;SDS011;48941;49.516;8.286;2023-05-07T08:55:31;3.75;;;3.20;;
62848;SDS011;48941;49.516;8.286;2023-05-07T08:58:00;4.18;;;3.03;;
62848;SDS011;48941;49.516;8.286;2023-05-07T09:00:28;4.35;;;3.10;;
62848;SDS011;48941;49.516;8.286;2023-05-07T09:02:56;4.72;;;3.03;;
62848;SDS011;48941;49.516;8.286;2023-05-07T09:05:25;3.67;;;3.10;;
62848;SDS011;48941;49.516;8.286;2023-05-07T09:07:53;3.15;;;2.85;;
62848;SDS011;48941;49.516;8.286;2023-05-07T09:10:23;7.55;;;3.10;;
62848;SDS011;48941;49.516;8.286;2023-05-07T09:12:51;5.50;;;3.40;;
62848;SDS011;48941;49.516;8.286;2023-05-07T09:15:19;5.40;;;3.05;;
62848;SDS011;48941;49.516;8.286;2023-05-07T09:17:47;4.20;;;3.10;;
62848;SDS011;48941;49.516;8.286;2023-05-07T09:20:15;3.20;;;2.90;;
62848;SDS011;48941;49.516;8.286;2023-05-07T09:22:45;5.60;;;2.90;;
62848;SDS011;48941;49.516;8.286;2023-05-07T09:25:13;3.88;;;2.50;;
62848;SDS011;48941;49.516;8.286;2023-05-07T09:27:41;5.90;;;2.55;;
62848;SDS011;48941;49.516;8.286;2023-05-07T09:30:10;4.03;;;2.60;;
62848;SDS011;48941;49.516;8.286;2023-05-07T09:32:38;3.05;;;2.28;;
62848;SDS011;48941;49.516;8.286;2023-05-07T09:35:06;5.07;;;2.45;;
62848;SDS011;48941;49.516;8.286;2023-05-07T09:37:42;4.70;;;2.63;;
62848;SDS011;48941;49.516;8.286;2023-05-07T09:40:20;3.85;;;2.60;;
62848;SDS011;48941;49.516;8.286;2023-05-07T09:42:49;3.30;;;2.50;;
62848;SDS011;48941;49.516;8.286;2023-05-07T09:45:21;6.60;;;2.80;;
62848;SDS011;48941;49.516;8.286;2023-05-07T09:47:49;3.90;;;2.75;;
62848;SDS011;48941;49.516;8.286;2023-05-07T09:52:53;5.22;;;3.10;;
62848;SDS011;48941;49.516;8.286;2023-05-07T09:55:23;5.88;;;2.95;;
62848;SDS011;48941;49.516;8.286;2023-05-07T09:57:51;3.35;;;3.05;;
62848;SDS011;48941;49.516;8.286;2023-05-07T10:00:20;3.42;;;2.92;;
62848;SDS011;48941;49.516;8.286;2023-05-07T10:02:49;5.38;;;3.10;;
62848;SDS011;48941;49.516;8.286;2023-05-07T10:05:19;4.75;;;3.00;;
62848;SDS011;48941;49.516;8.286;2023-05-07T10:07:47;3.15;;;2.85;;
62848;SDS011;48941;49.516;8.286;2023-05-07T10:10:15;4.35;;;2.92;;
62848;SDS011;48941;49.516;8.286;2023-05-07T10:12:46;6.88;;;2.70;;
62848;SDS011;48941;49.516;8.286;2023-05-07T10:15:14;4.93;;;2.83;;
62848;SDS011;48941;49.516;8.286;2023-05-07T10:17:42;7.65;;;2.75;;
62848;SDS011;48941;49.516;8.286;2023-05-07T10:20:10;3.15;;;2.85;;
62848;SDS011;48941;49.516;8.286;2023-05-07T10:22:38;4.32;;;2.92;;
62848;SDS011;48941;49.516;8.286;2023-05-07T10:25:14;5.45;;;3.42;;
62848;SDS011;48941;49.516;8.286;2023-05-07T10:27:46;7.10;;;3.25;;
62848;SDS011;48941;49.516;8.286;2023-05-07T10:30:19;3.28;;;2.70;;
62848;SDS011;48941;49.516;8.286;2023-05-07T10:32:58;2.92;;;2.72;;
62848;SDS011;48941;49.516;8.286;2023-05-07T10:35:38;7.15;;;2.50;;
62848;SDS011;48941;49.516;8.286;2023-05-07T10:38:08;4.07;;;2.65;;
62848;SDS011;48941;49.516;8.286;2023-05-07T10:40:36;3.08;;;2.60;;
62848;SDS011;48941;49.516;8.286;2023-05-07T10:43:05;5.45;;;3.00;;
62848;SDS011;48941;49.516;8.286;2023-05-07T10:45:36;5.75;;;2.72;;
62848;SDS011;48941;49.516;8.286;2023-05-07T10:48:07;3.40;;;3.00;;
62848;SDS011;48941;49.516;8.286;2023-05-07T10:51:18;2.90;;;2.67;;
62848;SDS011;48941;49.516;8.286;2023-05-07T10:56:24;5.03;;;2.80;;
62848;SDS011;48941;49.516;8.286;2023-05-07T10:59:00;6.00;;;2.70;;
62848;SDS011;48941;49.516;8.286;2023-05-07T11:01:58;5.03;;;2.95;;
62848;SDS011;48941;49.516;8.286;2023-05-07T11:04:29;3.83;;;3.15;;
62848;SDS011;48941;49.516;8.286;2023-05-07T11:07:21;4.43;;;3.55;;
62848;SDS011;48941;49.516;8.286;2023-05-07T11:12:54;3.78;;;2.95;;
62848;SDS011;48941;49.516;8.286;2023-05-07T11:15:34;3.50;;;2.90;;
62848;SDS011;48941;49.516;8.286;2023-05-07T11:18:04;3.65;;;3.00;;
62848;SDS011;48941;49.516;8.286;2023-05-07T11:20:45;3.63;;;3.25;;
62848;SDS011;48941;49.516;8.286;2023-05-07T11:26:02;4.78;;;3.00;;
62848;SDS011;48941;49.516;8.286;2023-05-07T11:28:32;3.20;;;2.83;;
62848;SDS011;48941;49.516;8.286;2023-05-07T11:31:05;5.82;;;3.40;;
62848;SDS011;48941;49.516;8.286;2023-05-07T11:33:34;4.80;;;3.03;;
62848;SDS011;48941;49.516;8.286;2023-05-07T11:36:03;4.38;;;3.40;;
62848;SDS011;48941;49.516;8.286;2023-05-07T11:38:34;4.07;;;3.10;;
62848;SDS011;48941;49.516;8.286;2023-05-07T11:41:03;3.33;;;3.03;;
62848;SDS011;48941;49.516;8.286;2023-05-07T11:43:31;4.95;;;2.85;;
62848;SDS011;48941;49.516;8.286;2023-05-07T11:46:07;3.42;;;3.13;;
62848;SDS011;48941;49.516;8.286;2023-05-07T11:48:36;4.75;;;2.80;;
62848;SDS011;48941;49.516;8.286;2023-05-07T11:51:04;4.60;;;2.72;;
62848;SDS011;48941;49.516;8.286;2023-05-07T11:53:35;3.13;;;2.63;;
62848;SDS011;48941;49.516;8.286;2023-05-07T11:56:07;4.15;;;2.83;;
62848;SDS011;48941;49.516;8.286;2023-05-07T11:58:36;4.40;;;2.60;;
62848;SDS011;48941;49.516;8.286;2023-05-07T12:01:06;4.53;;;2.90;;
62848;SDS011;48941;49.516;8.286;2023-05-07T12:03:35;4.22;;;2.50;;
62848;SDS011;48941;49.516;8.286;2023-05-07T12:06:05;6.03;;;2.65;;
62848;SDS011;48941;49.516;8.286;2023-05-07T12:08:35;5.47;;;2.58;;
62848;SDS011;48941;49.516;8.286;2023-05-07T12:11:06;3.17;;;2.35;;
62848;SDS011;48941;49.516;8.286;2023-05-07T12:13:36;4.30;;;2.60;;
62848;SDS011;48941;49.516;8.286;2023-05-07T12:16:05;2.72;;;2.40;;
62848;SDS011;48941;49.516;8.286;2023-05-07T12:18:34;3.00;;;2.40;;
62848;SDS011;48941;49.516;8.286;2023-05-07T12:21:03;3.17;;;2.58;;
62848;SDS011;48941;49.516;8.286;2023-05-07T12:23:33;2.83;;;2.35;;
62848;SDS011;48941;49.516;8.286;2023-05-07T12:26:01;4.15;;;2.70;;
62848;SDS011;48941;49.516;8.286;2023-05-07T12:28:35;2.72;;;2.47;;
62848;SDS011;48941;49.516;8.286;2023-05-07T12:31:06;3.92;;;2.20;;
62848;SDS011;48941;49.516;8.286;2023-05-07T12:33:35;8.50;;;2.30;;
62848;SDS011;48941;49.516;8.286;2023-05-07T12:36:04;3.65;;;2.55;;
62848;SDS011;48941;49.516;8.286;2023-05-07T12:38:35;3.43;;;2.30;;
62848;SDS011;48941;49.516;8.286;2023-05-07T12:41:03;4.75;;;2.67;;
62848;SDS011;48941;49.516;8.286;2023-05-07T12:43:33;3.78;;;2.50;;
62848;SDS011;48941;49.516;8.286;2023-05-07T12:46:01;5.18;;;2.75;;
62848;SDS011;48941;49.516;8.286;2023-05-07T12:48:35;4.47;;;2.55;;
62848;SDS011;48941;49.516;8.286;2023-05-07T12:51:04;2.67;;;2.47;;
62848;SDS011;48941;49.516;8.286;2023-05-07T12:53:33;4.00;;;2.20;;
62848;SDS011;48941;49.516;8.286;2023-05-07T12:56:03;2.92;;;2.40;;
62848;SDS011;48941;49.516;8.286;2023-05-07T12:58:33;2.60;;;2.40;;
62848;SDS011;48941;49.516;8.286;2023-05-07T13:01:04;2.65;;;2.40;;
62848;SDS011;48941;49.516;8.286;2023-05-07T13:03:34;2.60;;;2.40;;
62848;SDS011;48941;49.516;8.286;2023-05-07T13:06:04;2.88;;;2.40;;
62848;SDS011;48941;49.516;8.286;2023-05-07T13:08:34;3.22;;;2.80;;
62848;SDS011;48941;49.516;8.286;2023-05-07T13:11:04;3.92;;;2.58;;
62848;SDS011;48941;49.516;8.286;2023-05-07T13:13:32;3.80;;;2.40;;
62848;SDS011;48941;49.516;8.286;2023-05-07T13:16:01;4.18;;;2.80;;
62848;SDS011;48941;49.516;8.286;2023-05-07T13:18:30;4.30;;;2.58;;
62848;SDS011;48941;49.516;8.286;2023-05-07T13:21:00;4.35;;;2.53;;
62848;SDS011;48941;49.516;8.286;2023-05-07T13:23:29;4.15;;;2.40;;
62848;SDS011;48941;49.516;8.286;2023-05-07T13:25:57;3.15;;;2.80;;
62848;SDS011;48941;49.516;8.286;2023-05-07T13:28:29;2.95;;;2.40;;
62848;SDS011;48941;49.516;8.286;2023-05-07T13:30:57;4.22;;;2.33;;
62848;SDS011;48941;49.516;8.286;2023-05-07T13:33:24;4.07;;;2.38;;
62848;SDS011;48941;49.516;8.286;2023-05-07T13:35:52;3.47;;;2.90;;
62848;SDS011;48941;49.516;8.286;2023-05-07T13:38:21;3.63;;;2.90;;
62848;SDS011;48941;49.516;8.286;2023-05-07T13:40:50;5.88;;;2.80;;
62848;SDS011;48941;49.516;8.286;2023-05-07T13:43:18;2.90;;;2.70;;
62848;SDS011;48941;49.516;8.286;2023-05-07T13:45:46;3.42;;;2.75;;
62848;SDS011;48941;49.516;8.286;2023-05-07T13:48:13;3.83;;;2.60;;
62848;SDS011;48941;49.516;8.286;2023-05-07T13:50:41;4.18;;;2.70;;
62848;SDS011;48941;49.516;8.286;2023-05-07T13:53:09;3.13;;;2.80;;
62848;SDS011;48941;49.516;8.286;2023-05-07T13:55:38;3.15;;;2.85;;
62848;SDS011;48941;49.516;8.286;2023-05-07T13:58:06;6.55;;;3.10;;
62848;SDS011;48941;49.516;8.286;2023-05-07T14:00:34;11.95;;;3.20;;
62848;SDS011;48941;49.516;8.286;2023-05-07T14:03:02;3.60;;;2.90;;
62848;SDS011;48941;49.516;8.286;2023-05-07T14:05:31;2.78;;;2.58;;
62848;SDS011;48941;49.516;8.286;2023-05-07T14:07:59;5.30;;;3.10;;
62848;SDS011;48941;49.516;8.286;2023-05-07T14:10:27;6.97;;;2.92;;
62848;SDS011;48941;49.516;8.286;2023-05-07T14:12:56;5.57;;;3.05;;
62848;SDS011;48941;49.516;8.286;2023-05-07T14:15:24;7.25;;;2.95;;
62848;SDS011;48941;49.516;8.286;2023-05-07T14:17:52;3.35;;;3.05;;
62848;SDS011;48941;49.516;8.286;2023-05-07T14:20:20;3.15;;;2.90;;
62848;SDS011;48941;49.516;8.286;2023-05-07T14:22:47;4.40;;;3.00;;
62848;SDS011;48941;49.516;8.286;2023-05-07T14:25:15;4.28;;;3.00;;
62848;SDS011;48941;49.516;8.286;2023-05-07T14:27:44;4.90;;;2.80;;
62848;SDS011;48941;49.516;8.286;2023-05-07T14:30:13;5.50;;;3.42;;
62848;SDS011;48941;49.516;8.286;2023-05-07T14:32:41;6.53;;;3.13;;
62848;SDS011;48941;49.516;8.286;2023-05-07T14:35:09;4.05;;;3.00;;
62848;SDS011;48941;49.516;8.286;2023-05-07T14:37:37;4.50;;;3.10;;
62848;SDS011;48941;49.516;8.286;2023-05-07T14:40:06;4.45;;;3.17;;
62848;SDS011;48941;49.516;8.286;2023-05-07T14:42:35;6.70;;;3.38;;
62848;SDS011;48941;49.516;8.286;2023-05-07T14:45:03;5.85;;;3.70;;
62848;SDS011;48941;49.516;8.286;2023-05-07T14:47:33;3.90;;;3.30;;
62848;SDS011;48941;49.516;8.286;2023-05-07T14:50:00;9.88;;;3.47;;
62848;SDS011;48941;49.516;8.286;2023-05-07T14:52:28;8.38;;;3.47;;
62848;SDS011;48941;49.516;8.286;2023-05-07T14:54:56;7.15;;;4.15;;
62848;SDS011;48941;49.516;8.286;2023-05-07T14:57:24;8.95;;;4.88;;
62848;SDS011;48941;49.516;8.286;2023-05-07T14:59:52;8.07;;;3.80;;
62848;SDS011;48941;49.516;8.286;2023-05-07T15:02:20;7.20;;;3.65;;
62848;SDS011;48941;49.516;8.286;2023-05-07T15:04:49;8.77;;;3.90;;
62848;SDS011;48941;49.516;8.286;2023-05-07T15:07:17;7.47;;;3.85;;
62848;SDS011;48941;49.516;8.286;2023-05-07T15:09:45;7.43;;;4.20;;